Time;durP1;ratioP1;P1;durP2;ratioP2;P2;SDS_P1;SDS_P2;PMS_P1;PMS_P2;Temp;Humidity;BMP_temperature;BMP_pressure;BME280_temperature;BME280_humidity;BME280_pressure;Samples;Min_cycle;Max_cycle;Signal;HPM_P1;HPM_P2
2022/06/24 00:00:10;;;;;;;34.17;20.40;;;;;;;;;;4966719;28;20116;-85
2022/06/24 00:02:37;;;;;;;38.60;21.00;;;;;;;;;;4954476;28;20178;-85
2022/06/24 00:05:05;;;;;;;36.13;21.00;;;;;;;;;;4954639;28;20023;-84
2022/06/24 00:07:42;;;;;;;36.20;21.75;;;;;;;;;;4953389;29;20019;-85
2022/06/24 00:10:11;;;;;;;36.08;20.58;;;;;;;;;;4954510;28;20027;-84
2022/06/24 00:12:37;;;;;;;38.75;22.00;;;;;;;;;;4954530;28;20027;-84
2022/06/24 00:15:02;;;;;;;32.73;21.47;;;;;;;;;;4962271;28;20034;-84
2022/06/24 00:17:29;;;;;;;33.55;20.65;;;;;;;;;;4973386;28;20026;-84
2022/06/24 00:19:59;;;;;;;34.78;22.50;;;;;;;;;;4972270;28;20015;-84
2022/06/24 00:22:25;;;;;;;34.70;22.02;;;;;;;;;;4973601;28;20018;-84
2022/06/24 00:25:05;;;;;;;39.20;23.50;;;;;;;;;;4988408;28;20018;-85
2022/06/24 00:27:30;;;;;;;36.22;23.48;;;;;;;;;;4973518;28;20098;-85
2022/06/24 00:29:56;;;;;;;35.23;21.70;;;;;;;;;;4963802;28;20114;-85
2022/06/24 00:32:31;;;;;;;32.35;21.02;;;;;;;;;;4953949;28;20654;-85
2022/06/24 00:35:07;;;;;;;28.92;20.05;;;;;;;;;;4953962;28;20034;-85
2022/06/24 00:37:33;;;;;;;36.92;22.85;;;;;;;;;;4954038;28;20027;-84
2022/06/24 00:40:00;;;;;;;34.38;21.95;;;;;;;;;;4954023;29;20102;-85
2022/06/24 00:42:26;;;;;;;31.52;20.52;;;;;;;;;;4954001;28;20098;-85
2022/06/24 00:45:05;;;;;;;35.00;22.42;;;;;;;;;;4964887;28;20110;-85
2022/06/24 00:47:31;;;;;;;35.05;22.58;;;;;;;;;;4973244;28;20105;-84
2022/06/24 00:49:58;;;;;;;38.95;22.63;;;;;;;;;;4972847;28;20097;-85
2022/06/24 00:52:23;;;;;;;38.30;22.58;;;;;;;;;;4973063;28;20031;-84
2022/06/24 00:54:48;;;;;;;33.88;21.65;;;;;;;;;;4973147;28;20069;-84
2022/06/24 00:57:14;;;;;;;34.33;22.17;;;;;;;;;;4971886;28;20189;-84
2022/06/24 00:59:40;;;;;;;31.88;20.50;;;;;;;;;;4961650;28;20063;-83
2022/06/24 01:02:06;;;;;;;31.70;19.90;;;;;;;;;;4968439;28;20078;-84
2022/06/24 01:04:32;;;;;;;29.60;18.92;;;;;;;;;;4953703;29;20023;-84
2022/06/24 01:06:57;;;;;;;36.05;21.90;;;;;;;;;;4953863;28;20029;-84
2022/06/24 01:09:23;;;;;;;33.42;21.20;;;;;;;;;;4953793;28;20434;-85
2022/06/24 01:11:48;;;;;;;27.67;20.63;;;;;;;;;;4953924;28;20087;-84
2022/06/24 01:14:13;;;;;;;31.03;21.07;;;;;;;;;;4956353;28;20261;-84
2022/06/24 01:16:39;;;;;;;33.63;21.27;;;;;;;;;;4953459;28;20763;-84
2022/06/24 01:19:05;;;;;;;31.33;19.90;;;;;;;;;;4953620;29;20026;-84
2022/06/24 01:21:32;;;;;;;32.50;21.15;;;;;;;;;;4953586;28;20023;-85
2022/06/24 01:24:05;;;;;;;39.75;21.75;;;;;;;;;;4953360;28;20023;-85
2022/06/24 01:26:30;;;;;;;36.30;20.50;;;;;;;;;;4953614;28;20385;-85
2022/06/24 01:28:55;;;;;;;32.38;20.35;;;;;;;;;;4958400;28;20033;-84
2022/06/24 01:31:21;;;;;;;30.35;18.92;;;;;;;;;;4972350;28;20056;-84
2022/06/24 01:33:46;;;;;;;32.97;20.70;;;;;;;;;;4970077;28;20114;-85
2022/06/24 01:36:11;;;;;;;33.93;21.23;;;;;;;;;;4971407;28;20379;-84
2022/06/24 01:38:36;;;;;;;33.72;20.95;;;;;;;;;;4972778;28;20360;-85
2022/06/24 01:41:01;;;;;;;30.97;19.93;;;;;;;;;;4972823;28;20425;-84
2022/06/24 01:43:27;;;;;;;30.83;21.17;;;;;;;;;;4972646;28;20774;-85
2022/06/24 01:45:52;;;;;;;32.30;20.00;;;;;;;;;;4972729;28;20268;-85
2022/06/24 01:48:17;;;;;;;28.53;19.07;;;;;;;;;;4971155;28;20353;-84
2022/06/24 01:50:42;;;;;;;32.47;20.13;;;;;;;;;;4971203;28;20287;-85
2022/06/24 01:53:07;;;;;;;29.43;18.40;;;;;;;;;;4972614;28;20352;-85
2022/06/24 01:55:32;;;;;;;36.53;21.27;;;;;;;;;;4972599;28;20289;-84
2022/06/24 01:57:58;;;;;;;30.80;21.30;;;;;;;;;;4972695;28;20015;-85
2022/06/24 02:00:23;;;;;;;34.10;21.27;;;;;;;;;;4972482;28;20277;-85
2022/06/24 02:02:48;;;;;;;33.67;22.30;;;;;;;;;;4974482;28;20281;-84
2022/06/24 02:05:13;;;;;;;36.65;22.25;;;;;;;;;;4976202;28;20261;-84
2022/06/24 02:07:39;;;;;;;31.95;23.23;;;;;;;;;;4989394;28;20027;-85
2022/06/24 02:15:32;;;;;;;36.92;22.55;;;;;;;;;;4975869;28;20081;-84
2022/06/24 02:17:57;;;;;;;35.92;22.55;;;;;;;;;;4976016;28;20473;-85
2022/06/24 02:20:23;;;;;;;37.95;21.38;;;;;;;;;;4975848;28;20050;-84
2022/06/24 02:22:48;;;;;;;33.70;21.57;;;;;;;;;;4975236;28;20527;-84
2022/06/24 02:25:14;;;;;;;33.90;20.60;;;;;;;;;;4975678;28;20292;-84
2022/06/24 02:27:39;;;;;;;32.33;20.10;;;;;;;;;;4975692;28;20027;-84
2022/06/24 02:30:04;;;;;;;40.23;22.17;;;;;;;;;;4975617;28;20390;-84
2022/06/24 02:32:30;;;;;;;30.67;19.58;;;;;;;;;;4975398;28;20750;-84
2022/06/24 02:34:55;;;;;;;28.03;19.13;;;;;;;;;;4975414;28;20042;-84
2022/06/24 02:37:20;;;;;;;31.48;20.20;;;;;;;;;;4967496;28;20285;-84
2022/06/24 02:39:45;;;;;;;38.22;20.52;;;;;;;;;;4956048;28;20019;-84
2022/06/24 02:42:10;;;;;;;29.33;20.43;;;;;;;;;;4957090;28;20039;-84
2022/06/24 02:44:36;;;;;;;30.83;19.57;;;;;;;;;;4956285;28;20015;-84
2022/06/24 02:47:01;;;;;;;31.73;21.10;;;;;;;;;;4955995;28;20253;-84
2022/06/24 02:49:26;;;;;;;32.00;20.55;;;;;;;;;;4956010;28;20446;-83
2022/06/24 02:51:51;;;;;;;27.92;19.70;;;;;;;;;;4955859;28;20074;-83
2022/06/24 02:54:16;;;;;;;31.03;19.63;;;;;;;;;;4954906;29;20019;-83
2022/06/24 02:56:42;;;;;;;33.03;22.50;;;;;;;;;;4965695;28;20035;-83
2022/06/24 02:59:07;;;;;;;33.63;20.53;;;;;;;;;;4975097;28;20754;-84
2022/06/24 03:01:32;;;;;;;29.40;19.55;;;;;;;;;;4974927;28;20276;-84
2022/06/24 03:03:57;;;;;;;34.97;21.40;;;;;;;;;;4975209;28;20031;-84
2022/06/24 03:06:23;;;;;;;30.20;21.27;;;;;;;;;;4973900;28;20039;-84
2022/06/24 03:08:48;;;;;;;29.42;20.33;;;;;;;;;;4975159;28;20608;-84
2022/06/24 03:11:14;;;;;;;30.20;21.10;;;;;;;;;;4965859;28;20027;-84
2022/06/24 03:13:39;;;;;;;33.58;19.77;;;;;;;;;;4955851;28;20264;-84
2022/06/24 03:16:04;;;;;;;28.52;21.50;;;;;;;;;;4955563;28;20050;-83
2022/06/24 03:18:30;;;;;;;33.25;19.45;;;;;;;;;;4955685;28;20025;-83
2022/06/24 03:20:55;;;;;;;32.90;21.03;;;;;;;;;;4955551;28;20023;-84
2022/06/24 03:23:20;;;;;;;32.17;21.77;;;;;;;;;;4954191;28;20348;-86
2022/06/24 03:25:45;;;;;;;33.03;20.42;;;;;;;;;;4961727;28;20347;-84
2022/06/24 03:28:11;;;;;;;30.55;19.80;;;;;;;;;;4974746;28;20384;-86
2022/06/24 03:30:37;;;;;;;32.13;20.55;;;;;;;;;;4974317;28;20023;-84
2022/06/24 03:33:02;;;;;;;29.13;19.52;;;;;;;;;;4974543;28;20575;-84
2022/06/24 03:35:28;;;;;;;30.63;20.63;;;;;;;;;;4974377;28;20030;-84
2022/06/24 03:37:53;;;;;;;28.63;20.15;;;;;;;;;;4974567;28;20086;-84
2022/06/24 03:40:19;;;;;;;27.40;19.55;;;;;;;;;;4969112;28;20397;-83
2022/06/24 03:42:44;;;;;;;29.10;20.27;;;;;;;;;;4954929;29;20441;-83
2022/06/24 03:45:09;;;;;;;30.40;18.63;;;;;;;;;;4954707;28;20054;-83
2022/06/24 03:47:34;;;;;;;26.95;19.92;;;;;;;;;;4954995;28;20356;-83
2022/06/24 03:50:00;;;;;;;29.55;20.83;;;;;;;;;;4954940;28;20054;-83
2022/06/24 03:52:25;;;;;;;25.85;20.08;;;;;;;;;;4953569;28;20469;-85
2022/06/24 03:54:50;;;;;;;29.20;21.05;;;;;;;;;;4956608;28;20038;-84
2022/06/24 03:57:15;;;;;;;31.77;20.67;;;;;;;;;;4965497;28;20039;-85
2022/06/24 03:59:41;;;;;;;23.93;18.13;;;;;;;;;;4972962;28;20264;-84
2022/06/24 04:02:06;;;;;;;26.10;20.10;;;;;;;;;;4973707;28;20269;-85
2022/06/24 04:04:31;;;;;;;29.87;19.43;;;;;;;;;;4973963;28;20255;-85
2022/06/24 04:06:56;;;;;;;29.23;19.98;;;;;;;;;;4972726;28;20272;-84
2022/06/24 04:09:22;;;;;;;28.40;18.43;;;;;;;;;;4973878;28;20054;-85
2022/06/24 04:11:47;;;;;;;25.95;19.38;;;;;;;;;;4972931;28;20281;-85
2022/06/24 04:14:12;;;;;;;23.25;17.75;;;;;;;;;;4988751;28;20453;-85
2022/06/24 04:16:37;;;;;;;25.77;18.27;;;;;;;;;;4973926;28;20109;-83
2022/06/24 04:19:03;;;;;;;28.23;18.83;;;;;;;;;;4973753;28;20267;-84
2022/06/24 04:21:30;;;;;;;30.02;19.55;;;;;;;;;;4973385;28;20271;-84
2022/06/24 04:23:55;;;;;;;31.27;19.77;;;;;;;;;;4973102;28;20061;-83
2022/06/24 04:26:21;;;;;;;29.27;20.45;;;;;;;;;;4971923;28;20433;-84
2022/06/24 04:28:46;;;;;;;25.13;18.70;;;;;;;;;;4973655;28;20015;-84
2022/06/24 04:31:12;;;;;;;30.98;19.48;;;;;;;;;;4973234;28;20067;-84
2022/06/24 04:33:37;;;;;;;27.50;19.02;;;;;;;;;;4973406;28;20218;-84
2022/06/24 04:36:03;;;;;;;28.27;19.35;;;;;;;;;;4973441;28;20030;-84
2022/06/24 04:38:28;;;;;;;28.08;18.15;;;;;;;;;;4973502;28;20023;-84
2022/06/24 04:40:53;;;;;;;29.47;16.97;;;;;;;;;;4971763;28;20063;-84
2022/06/24 04:43:19;;;;;;;24.20;18.30;;;;;;;;;;4973353;28;20391;-84
2022/06/24 04:45:44;;;;;;;27.33;18.27;;;;;;;;;;4973112;28;20597;-84
2022/06/24 04:48:09;;;;;;;26.45;17.05;;;;;;;;;;4973371;28;20739;-84
2022/06/24 04:50:35;;;;;;;23.65;16.25;;;;;;;;;;4973317;28;20022;-84
2022/06/24 04:53:00;;;;;;;23.03;16.43;;;;;;;;;;4973273;28;20400;-84
2022/06/24 04:55:25;;;;;;;25.50;15.97;;;;;;;;;;4963990;28;20329;-84
2022/06/24 04:57:50;;;;;;;21.90;16.00;;;;;;;;;;4953777;28;20324;-84
2022/06/24 05:00:16;;;;;;;28.40;16.40;;;;;;;;;;4953759;29;20046;-83
2022/06/24 05:02:41;;;;;;;19.10;15.05;;;;;;;;;;4953964;28;20023;-83
2022/06/24 05:05:07;;;;;;;22.33;15.57;;;;;;;;;;4953823;28;20528;-84
2022/06/24 05:07:32;;;;;;;20.25;15.25;;;;;;;;;;4954194;28;20070;-84
2022/06/24 05:09:58;;;;;;;22.33;16.10;;;;;;;;;;4959511;28;20045;-84
2022/06/24 05:12:23;;;;;;;26.40;15.30;;;;;;;;;;4972828;28;20261;-84
2022/06/24 05:14:48;;;;;;;27.20;16.38;;;;;;;;;;4973032;28;20256;-84
2022/06/24 05:17:14;;;;;;;19.13;13.63;;;;;;;;;;4973163;28;20022;-84
2022/06/24 05:19:39;;;;;;;21.63;14.45;;;;;;;;;;4971063;28;20603;-84
2022/06/24 05:22:05;;;;;;;18.85;13.18;;;;;;;;;;4972415;28;20030;-84
2022/06/24 05:24:30;;;;;;;16.83;13.10;;;;;;;;;;4972873;28;20496;-84
2022/06/24 05:26:56;;;;;;;17.48;13.40;;;;;;;;;;4972967;28;20030;-84
2022/06/24 05:29:21;;;;;;;21.85;14.38;;;;;;;;;;4972830;28;20465;-84
2022/06/24 05:31:46;;;;;;;17.13;11.80;;;;;;;;;;4972682;28;20037;-84
2022/06/24 05:34:12;;;;;;;14.98;11.65;;;;;;;;;;4972711;28;20493;-84
2022/06/24 05:36:37;;;;;;;19.58;13.18;;;;;;;;;;4975583;28;20497;-84
2022/06/24 05:39:03;;;;;;;19.58;12.52;;;;;;;;;;4976438;28;20420;-84
2022/06/24 05:41:28;;;;;;;23.27;12.45;;;;;;;;;;4976598;28;20380;-82
2022/06/24 05:43:53;;;;;;;20.02;12.23;;;;;;;;;;4976507;28;20074;-84
2022/06/24 05:46:18;;;;;;;16.73;12.50;;;;;;;;;;4976446;28;20027;-84
2022/06/24 05:48:43;;;;;;;17.20;12.37;;;;;;;;;;4976503;28;20022;-83
2022/06/24 05:51:13;;;;;;;19.20;11.57;;;;;;;;;;4975638;28;20257;-83
2022/06/24 05:56:22;;;;;;;27.05;12.20;;;;;;;;;;4974224;28;20405;-85
2022/06/24 05:58:48;;;;;;;20.40;10.50;;;;;;;;;;4974836;28;20023;-84
2022/06/24 06:01:14;;;;;;;19.85;9.32;;;;;;;;;;4963615;28;20114;-85
2022/06/24 06:03:40;;;;;;;15.02;8.85;;;;;;;;;;4951855;29;20055;-83
2022/06/24 06:06:06;;;;;;;14.75;8.68;;;;;;;;;;4965739;28;20473;-85
2022/06/24 06:08:31;;;;;;;17.02;9.15;;;;;;;;;;4971157;28;20057;-83
2022/06/24 06:10:56;;;;;;;11.10;7.43;;;;;;;;;;4970294;28;20121;-83
2022/06/24 06:13:21;;;;;;;13.97;7.30;;;;;;;;;;4970999;28;20351;-84
2022/06/24 06:15:47;;;;;;;13.90;6.43;;;;;;;;;;4964100;28;21341;-83
2022/06/24 06:18:12;;;;;;;12.23;5.37;;;;;;;;;;4962319;28;20611;-83
2022/06/24 06:20:37;;;;;;;6.55;4.45;;;;;;;;;;4970296;28;20698;-83
2022/06/24 06:23:03;;;;;;;11.85;4.95;;;;;;;;;;4965246;28;20055;-84
2022/06/24 06:25:28;;;;;;;15.80;4.68;;;;;;;;;;4974169;28;20417;-84
2022/06/24 06:27:53;;;;;;;10.50;4.20;;;;;;;;;;4974410;28;20034;-84
2022/06/24 06:30:18;;;;;;;8.97;4.33;;;;;;;;;;4974502;28;20495;-83
2022/06/24 06:32:44;;;;;;;8.80;4.10;;;;;;;;;;4973112;28;20754;-83
2022/06/24 06:35:09;;;;;;;9.60;4.40;;;;;;;;;;4974634;28;20081;-84
2022/06/24 06:37:35;;;;;;;9.73;4.28;;;;;;;;;;4974216;28;20484;-83
2022/06/24 06:40:00;;;;;;;9.27;4.22;;;;;;;;;;4974402;28;20018;-83
2022/06/24 06:42:25;;;;;;;10.60;4.65;;;;;;;;;;4973868;28;20428;-83
2022/06/24 06:44:50;;;;;;;6.20;3.97;;;;;;;;;;4973993;28;20019;-83
2022/06/24 06:47:16;;;;;;;8.70;4.03;;;;;;;;;;4971646;28;20054;-84
2022/06/24 06:49:41;;;;;;;10.55;5.97;;;;;;;;;;4973550;28;20271;-84
2022/06/24 06:52:06;;;;;;;9.93;6.85;;;;;;;;;;4973715;28;20050;-84
2022/06/24 06:54:32;;;;;;;10.18;7.28;;;;;;;;;;4969946;28;20499;-85
2022/06/24 06:56:57;;;;;;;9.77;7.43;;;;;;;;;;4960153;28;20046;-84
2022/06/24 06:59:22;;;;;;;11.55;8.73;;;;;;;;;;4969756;28;20268;-85
2022/06/24 07:01:47;;;;;;;18.77;8.70;;;;;;;;;;4966504;28;20393;-87
2022/06/24 07:04:13;;;;;;;15.07;8.53;;;;;;;;;;4973253;28;20018;-83
2022/06/24 07:06:38;;;;;;;12.90;9.32;;;;;;;;;;4963830;28;20269;-85
2022/06/24 07:09:03;;;;;;;14.97;9.70;;;;;;;;;;4973661;28;20480;-84
2022/06/24 07:11:28;;;;;;;12.50;8.40;;;;;;;;;;4973318;28;20618;-85
2022/06/24 07:13:54;;;;;;;13.80;8.98;;;;;;;;;;4970578;28;20766;-86
2022/06/24 07:16:20;;;;;;;17.30;9.65;;;;;;;;;;4964986;28;20170;-86
2022/06/24 07:18:45;;;;;;;12.85;8.95;;;;;;;;;;4971843;28;20109;-86
2022/06/24 07:21:11;;;;;;;12.03;8.27;;;;;;;;;;4963125;28;20476;-86
2022/06/24 07:23:36;;;;;;;13.40;8.43;;;;;;;;;;4974030;28;20268;-85
2022/06/24 07:26:01;;;;;;;14.37;8.30;;;;;;;;;;4974540;28;20218;-85
2022/06/24 07:28:27;;;;;;;13.23;8.45;;;;;;;;;;4965925;28;20840;-85
2022/06/24 07:30:52;;;;;;;14.57;9.05;;;;;;;;;;4972520;28;20022;-86
2022/06/24 07:33:17;;;;;;;12.87;8.03;;;;;;;;;;4972573;28;20038;-84
2022/06/24 07:35:43;;;;;;;8.60;6.50;;;;;;;;;;4972897;28;20109;-85
2022/06/24 07:38:08;;;;;;;18.70;7.63;;;;;;;;;;4971561;28;20375;-84
2022/06/24 07:40:34;;;;;;;8.70;6.47;;;;;;;;;;4973093;28;20019;-86
2022/06/24 07:42:59;;;;;;;12.90;7.27;;;;;;;;;;4972725;28;20037;-83
2022/06/24 07:45:24;;;;;;;11.30;7.22;;;;;;;;;;4973435;28;20267;-83
2022/06/24 07:47:49;;;;;;;9.70;6.70;;;;;;;;;;4971397;28;20019;-83
2022/06/24 07:50:14;;;;;;;9.57;6.53;;;;;;;;;;4969248;28;20269;-83
2022/06/24 07:52:40;;;;;;;14.93;7.17;;;;;;;;;;4971392;28;20343;-83
2022/06/24 07:57:49;;;;;;;10.95;7.07;;;;;;;;;;4961754;28;20328;-83
2022/06/24 08:00:14;;;;;;;9.07;6.63;;;;;;;;;;4968699;28;20050;-83
2022/06/24 08:02:40;;;;;;;9.75;6.50;;;;;;;;;;4971657;28;20307;-84
2022/06/24 08:05:05;;;;;;;8.27;5.77;;;;;;;;;;4970638;28;20027;-84
2022/06/24 08:07:30;;;;;;;12.60;5.30;;;;;;;;;;4972574;28;20348;-84
2022/06/24 08:09:56;;;;;;;5.97;4.50;;;;;;;;;;4972258;28;20497;-84
2022/06/24 08:12:21;;;;;;;8.25;4.60;;;;;;;;;;4972053;28;20327;-84
2022/06/24 08:14:46;;;;;;;5.90;4.13;;;;;;;;;;4986485;28;20025;-84
2022/06/24 08:17:11;;;;;;;6.32;4.40;;;;;;;;;;4972283;28;20696;-84
2022/06/24 08:19:37;;;;;;;6.38;4.60;;;;;;;;;;4969770;28;20014;-84
2022/06/24 08:22:02;;;;;;;7.83;4.63;;;;;;;;;;4972070;28;20027;-84
2022/06/24 08:24:27;;;;;;;7.95;4.35;;;;;;;;;;4972276;28;20015;-84
2022/06/24 08:26:52;;;;;;;7.87;4.57;;;;;;;;;;4971159;28;20417;-83
2022/06/24 08:29:17;;;;;;;11.98;4.78;;;;;;;;;;4969078;28;20751;-84
2022/06/24 08:31:43;;;;;;;7.17;4.53;;;;;;;;;;4971845;28;20034;-84
2022/06/24 08:34:09;;;;;;;9.40;6.03;;;;;;;;;;4961062;28;20019;-84
2022/06/24 08:36:34;;;;;;;11.13;6.53;;;;;;;;;;4959037;28;20053;-84
2022/06/24 08:38:59;;;;;;;11.40;7.17;;;;;;;;;;4959520;28;20028;-84
2022/06/24 08:41:25;;;;;;;12.80;8.82;;;;;;;;;;4964288;28;20287;-84
2022/06/24 08:43:51;;;;;;;14.50;9.40;;;;;;;;;;4970580;28;20409;-84
2022/06/24 08:46:17;;;;;;;12.63;8.85;;;;;;;;;;4970790;28;20050;-84
2022/06/24 08:48:42;;;;;;;18.60;11.43;;;;;;;;;;4971565;28;20027;-84
2022/06/24 08:51:11;;;;;;;15.57;11.18;;;;;;;;;;4971002;28;20277;-84
2022/06/24 08:53:36;;;;;;;17.17;11.10;;;;;;;;;;4964820;28;20045;-83
2022/06/24 08:56:01;;;;;;;15.55;10.10;;;;;;;;;;4967388;28;20480;-84
2022/06/24 08:58:26;;;;;;;19.77;10.88;;;;;;;;;;4971605;28;20479;-84
2022/06/24 09:00:51;;;;;;;16.30;11.43;;;;;;;;;;4957294;28;20027;-85
2022/06/24 09:03:17;;;;;;;17.80;10.97;;;;;;;;;;4953716;29;20261;-85
2022/06/24 09:05:42;;;;;;;19.50;10.53;;;;;;;;;;4962741;28;20284;-84
2022/06/24 09:08:07;;;;;;;16.35;9.82;;;;;;;;;;4964370;28;20340;-84
2022/06/24 09:10:33;;;;;;;19.63;10.60;;;;;;;;;;4966027;28;20476;-84
2022/06/24 09:12:58;;;;;;;13.15;9.75;;;;;;;;;;4968888;28;20292;-85
2022/06/24 09:15:24;;;;;;;10.27;8.60;;;;;;;;;;4972061;28;20125;-85
2022/06/24 09:17:50;;;;;;;17.77;10.40;;;;;;;;;;4971248;28;20125;-85
2022/06/24 09:20:19;;;;;;;12.90;9.38;;;;;;;;;;4972019;28;20015;-85
2022/06/24 09:22:45;;;;;;;15.63;10.20;;;;;;;;;;4967216;28;20441;-85
2022/06/24 09:25:10;;;;;;;17.85;10.43;;;;;;;;;;4971497;28;20081;-85
2022/06/24 09:27:41;;;;;;;17.23;10.30;;;;;;;;;;4967316;28;20026;-85
2022/06/24 09:30:07;;;;;;;18.83;9.80;;;;;;;;;;4965911;28;20138;-85
2022/06/24 09:32:32;;;;;;;16.08;9.82;;;;;;;;;;4970903;28;20057;-85
2022/06/24 09:34:57;;;;;;;13.43;9.60;;;;;;;;;;4971192;28;20029;-85
2022/06/24 09:37:42;;;;;;;15.67;9.23;;;;;;;;;;4967773;28;20371;-85
2022/06/24 09:40:14;;;;;;;16.52;8.48;;;;;;;;;;4968952;28;20561;-85
2022/06/24 09:42:40;;;;;;;20.88;11.38;;;;;;;;;;4969667;28;20354;-85
2022/06/24 09:45:05;;;;;;;15.60;8.82;;;;;;;;;;4970208;28;20049;-85
2022/06/24 09:47:30;;;;;;;16.13;8.25;;;;;;;;;;4969914;28;20026;-85
2022/06/24 09:49:56;;;;;;;14.27;8.03;;;;;;;;;;4967588;28;20016;-85
2022/06/24 09:52:21;;;;;;;10.38;6.68;;;;;;;;;;4967356;28;20500;-85
2022/06/24 09:54:47;;;;;;;11.73;7.15;;;;;;;;;;4970867;28;20420;-85
2022/06/24 09:57:12;;;;;;;11.13;6.90;;;;;;;;;;4971264;28;20401;-85
2022/06/24 10:02:23;;;;;;;8.02;5.25;;;;;;;;;;4966114;28;20026;-85
2022/06/24 10:04:50;;;;;;;10.00;4.80;;;;;;;;;;4971049;28;20023;-85
2022/06/24 10:07:16;;;;;;;10.75;5.15;;;;;;;;;;4970850;28;20140;-85
2022/06/24 10:09:41;;;;;;;9.68;4.18;;;;;;;;;;4971487;28;20503;-85
2022/06/24 10:12:06;;;;;;;5.87;4.07;;;;;;;;;;4970743;28;20429;-85
2022/06/24 10:14:33;;;;;;;8.95;3.97;;;;;;;;;;4970764;28;20667;-85
2022/06/24 10:16:58;;;;;;;8.25;4.00;;;;;;;;;;4970763;28;20121;-85
2022/06/24 10:19:25;;;;;;;4.90;2.85;;;;;;;;;;4971300;28;20102;-85
2022/06/24 10:21:50;;;;;;;6.53;3.78;;;;;;;;;;4982987;28;20388;-85
2022/06/24 10:24:16;;;;;;;5.55;3.40;;;;;;;;;;4989544;28;20098;-85
2022/06/24 10:26:50;;;;;;;6.13;3.22;;;;;;;;;;4972510;28;20536;-85
2022/06/24 10:29:17;;;;;;;17.40;4.15;;;;;;;;;;4973902;28;20022;-85
2022/06/24 10:31:45;;;;;;;5.47;3.45;;;;;;;;;;4968749;28;20114;-85
2022/06/24 10:34:22;;;;;;;6.50;3.88;;;;;;;;;;4971807;28;20019;-85
2022/06/24 10:36:48;;;;;;;4.70;3.95;;;;;;;;;;4975065;28;20496;-85
2022/06/24 10:39:15;;;;;;;7.70;4.97;;;;;;;;;;4975159;28;20069;-85
2022/06/24 10:41:44;;;;;;;5.72;4.15;;;;;;;;;;4974148;28;20110;-85
2022/06/24 10:44:22;;;;;;;11.65;4.75;;;;;;;;;;4974087;28;20027;-85
2022/06/24 10:47:07;;;;;;;6.32;4.35;;;;;;;;;;4972938;28;20385;-85
2022/06/24 10:49:54;;;;;;;8.63;5.05;;;;;;;;;;4971256;28;20015;-85
2022/06/24 10:52:45;;;;;;;6.78;4.95;;;;;;;;;;4973260;28;20023;-85
2022/06/24 10:55:29;;;;;;;9.07;5.53;;;;;;;;;;4972872;28;20050;-85
2022/06/24 10:58:05;;;;;;;7.40;4.70;;;;;;;;;;4973087;28;20038;-85
2022/06/24 11:00:36;;;;;;;6.53;4.78;;;;;;;;;;4971674;28;20470;-85
2022/06/24 11:03:04;;;;;;;6.05;4.18;;;;;;;;;;4968284;28;20055;-85
2022/06/24 11:05:34;;;;;;;6.70;4.13;;;;;;;;;;4973832;28;20026;-85
2022/06/24 11:07:59;;;;;;;8.02;3.88;;;;;;;;;;4971274;28;20010;-85
2022/06/24 11:10:30;;;;;;;9.05;4.68;;;;;;;;;;4973715;28;20022;-85
2022/06/24 11:12:58;;;;;;;7.72;4.32;;;;;;;;;;4974847;28;20041;-84
2022/06/24 11:15:38;;;;;;;7.40;5.22;;;;;;;;;;4974122;28;20531;-85
2022/06/24 11:18:14;;;;;;;7.90;5.32;;;;;;;;;;4972968;28;20086;-88
2022/06/24 11:20:42;;;;;;;8.40;4.88;;;;;;;;;;4973440;28;20026;-87
2022/06/24 11:23:08;;;;;;;7.20;4.32;;;;;;;;;;4972300;28;20038;-87
2022/06/24 11:25:34;;;;;;;8.27;4.60;;;;;;;;;;4973733;28;20015;-85
2022/06/24 11:27:59;;;;;;;8.07;4.03;;;;;;;;;;4973629;28;20107;-84
2022/06/24 11:30:24;;;;;;;7.83;3.73;;;;;;;;;;4973122;28;20477;-84
2022/06/24 11:32:53;;;;;;;6.53;3.72;;;;;;;;;;4969324;28;20284;-84
2022/06/24 11:35:19;;;;;;;9.23;3.83;;;;;;;;;;4987832;28;20389;-85
2022/06/24 11:37:44;;;;;;;5.90;3.33;;;;;;;;;;4973526;28;20031;-84
2022/06/24 11:40:10;;;;;;;8.10;3.22;;;;;;;;;;4970718;28;20539;-84
2022/06/24 11:42:35;;;;;;;12.95;3.17;;;;;;;;;;4971419;28;20035;-83
2022/06/24 11:45:00;;;;;;;5.88;2.47;;;;;;;;;;4971282;28;20026;-83
2022/06/24 11:47:29;;;;;;;5.60;2.70;;;;;;;;;;4971680;28;20109;-84
2022/06/24 11:49:54;;;;;;;5.40;3.00;;;;;;;;;;4965230;28;20412;-82
2022/06/24 11:52:19;;;;;;;7.20;2.40;;;;;;;;;;4965026;28;20035;-83
2022/06/24 11:54:45;;;;;;;4.07;2.13;;;;;;;;;;4954261;28;20026;-83
2022/06/24 11:57:10;;;;;;;3.77;2.30;;;;;;;;;;4968890;28;20046;-83
2022/06/24 11:59:37;;;;;;;4.45;2.28;;;;;;;;;;4973497;28;20264;-83
2022/06/24 12:02:03;;;;;;;2.72;1.90;;;;;;;;;;4965718;28;20505;-83
2022/06/24 12:04:28;;;;;;;4.75;2.10;;;;;;;;;;4968258;28;20033;-83
2022/06/24 12:06:53;;;;;;;10.10;3.25;;;;;;;;;;4971973;28;20033;-83
2022/06/24 12:09:19;;;;;;;4.10;1.92;;;;;;;;;;4972917;28;20019;-84
2022/06/24 12:11:44;;;;;;;3.58;1.80;;;;;;;;;;4973353;28;20027;-84
2022/06/24 12:14:18;;;;;;;8.30;2.35;;;;;;;;;;4973159;28;20354;-84
2022/06/24 12:16:58;;;;;;;8.30;2.83;;;;;;;;;;4972600;28;20046;-83
2022/06/24 12:19:24;;;;;;;5.55;2.53;;;;;;;;;;4968008;28;20035;-84
2022/06/24 12:21:49;;;;;;;3.95;2.00;;;;;;;;;;4971788;28;20398;-85
2022/06/24 12:24:19;;;;;;;3.17;2.30;;;;;;;;;;4970552;28;20046;-84
2022/06/24 12:26:45;;;;;;;2.10;1.42;;;;;;;;;;4972077;28;20780;-84
2022/06/24 12:29:10;;;;;;;6.03;1.77;;;;;;;;;;4970950;28;20023;-84
2022/06/24 12:31:35;;;;;;;2.17;1.42;;;;;;;;;;4969881;28;20026;-84
2022/06/24 12:34:01;;;;;;;3.88;2.00;;;;;;;;;;4967630;28;20030;-84
2022/06/24 12:36:34;;;;;;;4.85;2.20;;;;;;;;;;4972026;28;20031;-85
2022/06/24 12:39:01;;;;;;;8.18;2.92;;;;;;;;;;4969008;28;20070;-84
2022/06/24 12:41:26;;;;;;;5.90;2.58;;;;;;;;;;4970350;28;20026;-84
2022/06/24 12:43:51;;;;;;;3.58;2.53;;;;;;;;;;4971649;28;20507;-84
2022/06/24 12:46:17;;;;;;;6.93;3.78;;;;;;;;;;4970273;28;20030;-84
2022/06/24 12:51:26;;;;;;;6.75;3.08;;;;;;;;;;4968841;28;20115;-84
2022/06/24 12:53:53;;;;;;;6.80;2.55;;;;;;;;;;4971300;28;20483;-84
2022/06/24 12:56:18;;;;;;;3.85;2.55;;;;;;;;;;4986033;28;20073;-84
2022/06/24 12:58:43;;;;;;;6.22;2.92;;;;;;;;;;4968910;28;20416;-84
2022/06/24 13:01:08;;;;;;;7.40;3.50;;;;;;;;;;4971887;28;20018;-84
2022/06/24 13:03:34;;;;;;;4.47;2.50;;;;;;;;;;4969451;28;20030;-84
2022/06/24 13:05:59;;;;;;;5.37;2.70;;;;;;;;;;4971586;28;20101;-84
2022/06/24 13:08:24;;;;;;;8.00;3.17;;;;;;;;;;4971808;28;20011;-84
2022/06/24 13:10:49;;;;;;;3.78;2.60;;;;;;;;;;4963772;28;20415;-84
2022/06/24 13:13:15;;;;;;;6.63;3.35;;;;;;;;;;4966622;28;20034;-84
2022/06/24 13:15:40;;;;;;;4.30;3.20;;;;;;;;;;4972015;28;20409;-84
2022/06/24 13:18:06;;;;;;;7.77;3.47;;;;;;;;;;4971143;28;20082;-84
2022/06/24 13:20:32;;;;;;;5.22;2.90;;;;;;;;;;4969848;28;20277;-84
2022/06/24 13:22:57;;;;;;;6.50;3.70;;;;;;;;;;4971358;28;20026;-84
2022/06/24 13:25:23;;;;;;;12.20;4.10;;;;;;;;;;4971476;28;20532;-84
2022/06/24 13:27:48;;;;;;;8.95;4.88;;;;;;;;;;4967707;28;20022;-84
2022/06/24 13:30:14;;;;;;;9.45;5.13;;;;;;;;;;4969818;28;20074;-84
2022/06/24 13:32:39;;;;;;;8.20;4.90;;;;;;;;;;4970829;28;20026;-84
2022/06/24 13:35:04;;;;;;;11.23;6.07;;;;;;;;;;4971158;28;20276;-84
2022/06/24 13:37:30;;;;;;;9.38;4.50;;;;;;;;;;4970095;28;20035;-84
2022/06/24 13:39:55;;;;;;;9.97;6.37;;;;;;;;;;4970141;28;20044;-84
2022/06/24 13:42:20;;;;;;;9.35;6.03;;;;;;;;;;4971466;28;20269;-84
2022/06/24 13:44:46;;;;;;;11.98;5.72;;;;;;;;;;4971406;28;20085;-84
2022/06/24 13:47:11;;;;;;;10.17;6.23;;;;;;;;;;4966706;28;20035;-84
2022/06/24 13:49:36;;;;;;;9.90;6.00;;;;;;;;;;4967689;28;20300;-84
2022/06/24 13:52:01;;;;;;;10.27;6.30;;;;;;;;;;4971162;28;20385;-84
2022/06/24 13:54:27;;;;;;;10.68;7.38;;;;;;;;;;4969343;28;20735;-84
2022/06/24 13:56:52;;;;;;;11.93;6.97;;;;;;;;;;4973903;28;20042;-84
2022/06/24 13:59:17;;;;;;;9.90;7.00;;;;;;;;;;4986002;28;20265;-84
2022/06/24 14:01:43;;;;;;;12.45;7.18;;;;;;;;;;4974764;28;20292;-84
2022/06/24 14:04:08;;;;;;;15.68;6.63;;;;;;;;;;4974739;28;20064;-84
2022/06/24 15:17:16;;;;;;;;;;;;;;;;;;;;;
2022/06/24 15:20:04;;;;;;;4.82;1.33;;;;;;;;;;5000178;28;20117;-96
2022/06/24 15:22:30;;;;;;;5.18;1.00;;;;;;;;;;4984790;28;20113;-95
2022/06/24 15:25:04;;;;;;;1.75;0.90;;;;;;;;;;4974188;28;20069;-96
2022/06/24 15:27:29;;;;;;;2.22;1.08;;;;;;;;;;4975638;28;20069;-96
2022/06/24 15:29:58;;;;;;;7.78;1.30;;;;;;;;;;4973898;28;20031;-96
2022/06/24 15:32:23;;;;;;;2.30;1.10;;;;;;;;;;4973451;28;20026;-96
2022/06/24 15:34:48;;;;;;;3.95;0.80;;;;;;;;;;4973524;28;20038;-95
2022/06/24 15:37:14;;;;;;;3.65;0.90;;;;;;;;;;4973485;28;20318;-95
2022/06/24 15:39:39;;;;;;;7.07;0.90;;;;;;;;;;4973279;28;20038;-96
2022/06/24 15:42:05;;;;;;;6.00;0.80;;;;;;;;;;4973639;28;20465;-94
2022/06/24 15:44:31;;;;;;;7.55;0.82;;;;;;;;;;4973728;28;20246;-95
2022/06/24 15:46:58;;;;;;;2.55;0.50;;;;;;;;;;4974365;28;20050;-95
2022/06/24 15:49:26;;;;;;;4.60;0.80;;;;;;;;;;4972725;28;20043;-96